Saint-Bruno-De-Guigues, Canada
Current Conditions -  °F | °C
As of 3:00 AM on Sunday 26 Oct 2014 (Local Time) from CYXR Reporting Station
Overcast Overcast  
Wind Chill: 31°   Ceiling: 4100
Heat Index: 39°   Visibility: NA
Dew Point: 36°   Wind: 15mph
Humidity: 87%   Direction: 290°WNW
Pressure: 29.48"   Gusts: 23mph
Location:  47.47°N, 79.43°W
Report Text: CYXR 260700Z AUTO 29013G20KT FEW016 SCT025 BKN041 OVC060 04/02 A2948 RMK WX MISG VIS MISG PCPN MISG SLP990
Loading
Personal Weather Stations






























Interactive Weather Map
Tropical Storm Tracking
New forecast layout! Learn more

10-Day Weather Forecast

Advertisements
Track Severe Weather on mobile